Time;durP1;ratioP1;P1;durP2;ratioP2;P2;SDS_P1;SDS_P2;PMS_P1;PMS_P2;Temp;Humidity;BMP_temperature;BMP_pressure;BME280_temperature;BME280_humidity;BME280_pressure;Samples;Min_cycle;Max_cycle;Signal;HPM_P1;HPM_P2
2022/01/05 00:01:07;;;;;;;9.03;5.20;;;3.10;99.90;;;;;;5037689;28;20512;-48
2022/01/05 00:03:33;;;;;;;8.10;5.67;;;3.10;99.90;;;;;;5027897;28;20502;-49
2022/01/05 00:06:00;;;;;;;6.57;4.87;;;3.10;99.90;;;;;;5030970;28;20487;-49
2022/01/05 00:08:28;;;;;;;9.17;5.70;;;3.10;99.90;;;;;;5032000;28;20514;-49
2022/01/05 00:10:54;;;;;;;6.47;5.87;;;3.10;99.90;;;;;;5027401;28;20490;-49
2022/01/05 00:13:21;;;;;;;6.17;5.50;;;3.10;99.90;;;;;;5029770;28;20494;-49
2022/01/05 00:15:48;;;;;;;10.33;5.70;;;3.00;99.90;;;;;;5028292;28;20556;-50
2022/01/05 00:18:15;;;;;;;6.63;5.87;;;3.00;99.90;;;;;;5028086;28;20506;-49
2022/01/05 00:20:43;;;;;;;6.40;5.50;;;3.00;99.90;;;;;;5028428;28;20495;-50
2022/01/05 00:23:09;;;;;;;9.87;5.37;;;3.00;99.90;;;;;;5030340;28;20505;-50
2022/01/05 00:25:37;;;;;;;7.63;5.00;;;3.00;99.90;;;;;;5030147;28;20504;-49
2022/01/05 00:28:04;;;;;;;5.80;4.60;;;3.00;99.90;;;;;;5029827;28;20491;-49
2022/01/05 00:30:31;;;;;;;5.00;4.60;;;3.00;99.90;;;;;;5027147;28;20463;-48
2022/01/05 00:32:58;;;;;;;4.97;4.53;;;3.00;99.90;;;;;;5030199;28;20466;-48
2022/01/05 00:35:24;;;;;;;6.50;4.10;;;3.00;99.90;;;;;;5027570;28;20539;-48
2022/01/05 00:37:51;;;;;;;7.67;4.30;;;3.00;99.90;;;;;;5027870;28;20976;-50
2022/01/05 00:40:17;;;;;;;8.90;3.77;;;2.90;99.90;;;;;;5027920;28;20489;-48
2022/01/05 00:42:45;;;;;;;5.10;4.60;;;2.90;99.90;;;;;;5028862;28;20501;-49
2022/01/05 00:45:13;;;;;;;7.60;3.90;;;2.90;99.90;;;;;;5026295;28;20489;-48
2022/01/05 00:47:40;;;;;;;5.37;3.70;;;2.90;99.90;;;;;;5028715;28;20806;-49
2022/01/05 00:50:07;;;;;;;5.73;4.30;;;3.00;99.90;;;;;;5025505;28;21000;-49
2022/01/05 00:52:34;;;;;;;5.53;4.33;;;3.00;99.90;;;;;;5029241;28;20994;-49
2022/01/05 00:55:00;;;;;;;5.70;4.10;;;2.90;99.90;;;;;;5026655;28;20487;-49
2022/01/05 00:57:27;;;;;;;4.90;4.30;;;3.00;99.90;;;;;;5029016;28;21023;-49
2022/01/05 00:59:55;;;;;;;4.83;3.50;;;2.90;99.90;;;;;;5026986;28;20513;-49
2022/01/05 01:02:21;;;;;;;6.20;4.20;;;2.90;99.90;;;;;;5030873;28;20502;-49
2022/01/05 01:04:48;;;;;;;4.97;3.70;;;2.90;99.90;;;;;;5030790;28;20493;-48
2022/01/05 01:07:14;;;;;;;6.17;3.70;;;2.90;99.90;;;;;;5027010;28;20486;-50
2022/01/05 01:09:41;;;;;;;2.93;2.70;;;2.90;99.90;;;;;;5028946;28;20580;-50
2022/01/05 01:12:09;;;;;;;5.20;4.00;;;2.90;99.90;;;;;;5031453;28;20964;-48
2022/01/05 01:14:36;;;;;;;5.27;3.23;;;3.00;99.90;;;;;;5027018;28;21025;-48
2022/01/05 01:17:04;;;;;;;6.20;3.60;;;3.00;99.90;;;;;;5028017;28;21169;-49
2022/01/05 01:19:31;;;;;;;14.97;3.90;;;3.00;99.90;;;;;;5030917;28;20515;-48
2022/01/05 01:21:58;;;;;;;3.90;3.27;;;3.00;99.90;;;;;;5032772;28;21165;-48
2022/01/05 01:24:24;;;;;;;6.50;3.60;;;3.10;99.90;;;;;;5031330;28;20466;-48
2022/01/05 01:26:51;;;;;;;4.87;3.40;;;3.10;99.90;;;;;;5031159;28;20490;-49
2022/01/05 01:29:18;;;;;;;6.57;3.40;;;3.10;99.90;;;;;;5032225;28;20490;-50
2022/01/05 01:31:44;;;;;;;3.80;2.93;;;3.20;99.90;;;;;;5031959;28;20501;-48
2022/01/05 01:34:12;;;;;;;6.17;3.20;;;3.20;99.90;;;;;;5040743;28;20547;-48
2022/01/05 01:36:38;;;;;;;5.80;3.00;;;3.20;99.90;;;;;;5040684;28;20914;-48
2022/01/05 01:39:05;;;;;;;5.80;3.63;;;3.20;99.90;;;;;;5027204;28;20514;-48
2022/01/05 01:41:32;;;;;;;6.93;2.57;;;3.30;99.90;;;;;;5031254;28;20462;-49
2022/01/05 01:43:58;;;;;;;6.70;2.90;;;3.30;99.90;;;;;;5031870;28;20494;-48
2022/01/05 01:46:25;;;;;;;7.90;2.57;;;3.30;99.90;;;;;;5032441;28;20969;-48
2022/01/05 01:48:52;;;;;;;6.50;2.40;;;3.30;99.90;;;;;;5032261;28;20506;-48
2022/01/05 01:51:20;;;;;;;4.97;2.57;;;3.30;99.90;;;;;;5033701;28;20498;-48
2022/01/05 01:53:47;;;;;;;3.93;2.20;;;3.30;99.90;;;;;;5030283;28;20561;-49
2022/01/05 01:56:14;;;;;;;5.03;2.03;;;3.40;99.90;;;;;;5030596;28;20510;-49
2022/01/05 01:58:40;;;;;;;4.40;2.03;;;3.40;99.90;;;;;;5027316;28;20479;-50
2022/01/05 02:01:07;;;;;;;5.13;2.27;;;3.30;85.60;;;;;;5029124;28;20963;-50
2022/01/05 02:03:34;;;;;;;8.70;2.90;;;3.40;22.80;;;;;;5032137;28;20487;-50
2022/01/05 02:06:00;;;;;;;6.27;2.47;;;3.40;33.50;;;;;;5029516;28;21025;-49
2022/01/05 02:08:28;;;;;;;10.20;1.90;;;3.40;35.10;;;;;;5029370;28;20561;-48
2022/01/05 02:10:55;;;;;;;6.53;2.27;;;3.40;43.60;;;;;;5030968;28;20498;-48
2022/01/05 02:13:22;;;;;;;8.10;2.43;;;3.40;57.10;;;;;;5031415;28;20516;-48
2022/01/05 02:15:48;;;;;;;2.73;1.50;;;3.40;64.70;;;;;;5032744;28;20502;-48
2022/01/05 02:18:58;;;;;;;2.60;2.23;;;3.40;56.00;;;;;;5031691;28;20540;-48
2022/01/05 02:21:12;;;;;;;5.80;3.17;;;3.40;57.90;;;;;;5028674;28;20462;-48
2022/01/05 02:23:39;;;;;;;4.57;2.57;;;3.40;56.50;;;;;;5032138;28;20491;-49
2022/01/05 02:26:08;;;;;;;5.30;2.10;;;3.40;61.10;;;;;;5030205;28;20490;-49
2022/01/05 02:28:35;;;;;;;4.17;2.23;;;3.40;59.40;;;;;;5033003;28;20561;-49
2022/01/05 02:31:03;;;;;;;5.37;2.23;;;3.40;57.90;;;;;;5029417;28;20463;-49
2022/01/05 02:33:30;;;;;;;4.20;1.93;;;3.40;57.80;;;;;;5030869;28;20514;-48
2022/01/05 02:35:57;;;;;;;9.90;1.97;;;3.40;58.40;;;;;;5033754;28;20558;-48
2022/01/05 02:38:25;;;;;;;4.43;1.80;;;3.40;66.30;;;;;;5029336;28;20809;-49
2022/01/05 02:40:52;;;;;;;6.00;2.00;;;3.30;63.60;;;;;;5033762;28;20536;-49
2022/01/05 02:43:19;;;;;;;3.63;2.13;;;3.30;61.80;;;;;;5030964;28;20506;-49
2022/01/05 02:45:45;;;;;;;3.30;1.93;;;3.30;60.60;;;;;;5030075;28;20541;-49
2022/01/05 02:48:12;;;;;;;3.40;2.10;;;3.30;62.90;;;;;;5031641;28;21027;-50
2022/01/05 02:50:39;;;;;;;4.17;1.97;;;3.40;63.90;;;;;;5030740;28;20541;-49
2022/01/05 02:53:05;;;;;;;8.13;2.80;;;3.40;63.10;;;;;;5031878;28;20501;-48
2022/01/05 02:55:33;;;;;;;4.47;2.10;;;3.30;60.00;;;;;;5033455;28;20537;-48
2022/01/05 02:58:00;;;;;;;4.23;2.03;;;3.30;60.40;;;;;;5029230;28;20941;-50
2022/01/05 03:00:27;;;;;;;4.50;2.40;;;3.30;60.00;;;;;;5030294;28;20512;-49
2022/01/05 03:02:53;;;;;;;4.67;1.70;;;3.30;61.80;;;;;;5031286;28;20509;-49
2022/01/05 03:05:20;;;;;;;4.50;2.40;;;3.30;61.10;;;;;;5027943;28;20538;-49
2022/01/05 03:07:47;;;;;;;4.73;2.40;;;3.30;56.70;;;;;;5028247;28;20825;-48
2022/01/05 03:10:14;;;;;;;12.73;2.87;;;3.30;55.60;;;;;;5028324;28;20543;-48
2022/01/05 03:12:43;;;;;;;9.40;3.30;;;3.30;57.80;;;;;;5031077;28;20463;-49
2022/01/05 03:15:11;;;;;;;10.30;4.23;;;3.40;58.90;;;;;;5029750;28;20559;-49
2022/01/05 03:17:37;;;;;;;4.00;2.93;;;3.40;61.40;;;;;;5026221;28;20487;-48
2022/01/05 03:20:05;;;;;;;11.23;3.17;;;3.40;65.60;;;;;;5025553;28;20483;-48
2022/01/05 03:22:32;;;;;;;6.73;2.30;;;3.40;68.80;;;;;;5032008;28;20870;-49
2022/01/05 03:24:58;;;;;;;7.57;2.53;;;3.40;67.80;;;;;;5034838;28;20899;-49
2022/01/05 03:27:25;;;;;;;8.77;3.20;;;3.30;68.70;;;;;;5041008;28;20518;-50
2022/01/05 03:29:53;;;;;;;8.87;2.60;;;3.30;67.10;;;;;;5029554;28;21049;-49
2022/01/05 03:32:20;;;;;;;8.63;2.90;;;3.30;61.30;;;;;;5037345;28;20548;-50
2022/01/05 03:34:50;;;;;;;5.57;3.00;;;3.40;60.60;;;;;;5030303;28;20455;-50
2022/01/05 03:37:16;;;;;;;7.77;2.50;;;3.40;59.80;;;;;;5031169;28;20478;-50
2022/01/05 03:39:43;;;;;;;4.37;2.23;;;3.30;61.40;;;;;;5030954;28;20569;-51
2022/01/05 03:42:09;;;;;;;6.57;2.60;;;3.30;65.60;;;;;;5030797;28;20904;-49
2022/01/05 03:44:36;;;;;;;8.77;2.80;;;3.30;65.30;;;;;;5031130;28;20565;-49
2022/01/05 03:47:05;;;;;;;5.77;2.37;;;3.30;66.10;;;;;;5022847;28;20550;-49
2022/01/05 03:49:31;;;;;;;6.43;2.57;;;3.40;67.50;;;;;;5031231;28;20553;-48
2022/01/05 03:51:58;;;;;;;3.77;1.93;;;3.40;65.90;;;;;;5030692;28;20545;-49
2022/01/05 03:54:24;;;;;;;5.20;2.77;;;3.40;64.40;;;;;;5015455;28;20489;-49
2022/01/05 03:56:51;;;;;;;7.17;3.07;;;3.40;63.10;;;;;;5030523;28;20573;-49
2022/01/05 03:59:17;;;;;;;4.83;2.23;;;3.40;68.80;;;;;;5029807;28;20569;-49
2022/01/05 04:01:44;;;;;;;8.07;2.60;;;3.40;69.50;;;;;;5034190;28;20550;-49
2022/01/05 04:04:12;;;;;;;6.40;2.40;;;3.40;73.00;;;;;;5032054;28;20554;-49
2022/01/05 04:06:39;;;;;;;8.03;2.50;;;3.40;80.00;;;;;;5030308;28;20498;-50
2022/01/05 04:09:05;;;;;;;17.73;3.90;;;3.40;81.30;;;;;;5051579;22;20588;-49
2022/01/05 04:11:32;;;;;;;8.70;2.70;;;3.40;80.30;;;;;;5048825;28;20537;-49
2022/01/05 04:13:58;;;;;;;7.23;2.50;;;3.40;81.40;;;;;;5046007;28;20549;-48
2022/01/05 04:16:25;;;;;;;12.60;1.70;;;3.40;83.80;;;;;;5049470;28;20536;-49
2022/01/05 04:18:51;;;;;;;5.93;2.17;;;3.40;80.70;;;;;;5045377;28;20574;-48
2022/01/05 04:21:19;;;;;;;8.23;2.50;;;3.40;80.00;;;;;;5047070;28;21026;-50
2022/01/05 04:23:46;;;;;;;5.60;1.97;;;3.40;89.90;;;;;;5044465;28;20552;-50
2022/01/05 04:26:12;;;;;;;3.90;1.70;;;3.50;92.90;;;;;;5051120;28;20549;-49
2022/01/05 04:28:40;;;;;;;5.50;1.80;;;3.50;98.00;;;;;;5041369;28;20527;-49
2022/01/05 04:31:07;;;;;;;3.90;2.20;;;3.50;89.70;;;;;;5048669;28;20963;-48
2022/01/05 04:33:33;;;;;;;4.03;2.07;;;3.50;89.00;;;;;;5047183;28;20494;-48
2022/01/05 04:36:00;;;;;;;4.03;2.20;;;3.50;90.50;;;;;;5039929;28;20615;-49
2022/01/05 04:38:28;;;;;;;9.30;2.00;;;3.50;99.90;;;;;;5041471;28;20569;-49
2022/01/05 04:40:55;;;;;;;8.90;2.07;;;3.50;99.90;;;;;;5046704;28;20458;-49
2022/01/05 04:43:22;;;;;;;4.90;1.70;;;3.40;99.90;;;;;;5048808;28;20955;-48
2022/01/05 04:45:49;;;;;;;4.40;1.93;;;3.50;99.90;;;;;;5044536;28;20545;-50
2022/01/05 04:48:15;;;;;;;8.70;2.37;;;3.40;99.90;;;;;;5048218;28;20974;-49
2022/01/05 04:50:42;;;;;;;7.63;2.80;;;3.40;97.70;;;;;;5045349;28;20540;-48
2022/01/05 04:53:11;;;;;;;7.43;3.40;;;3.40;96.60;;;;;;5045861;28;20504;-48
2022/01/05 04:55:39;;;;;;;2.50;1.73;;;3.40;94.60;;;;;;5046473;28;20462;-50
2022/01/05 04:58:05;;;;;;;6.43;2.13;;;3.40;92.50;;;;;;5044749;28;21036;-50
2022/01/05 05:00:32;;;;;;;6.37;2.60;;;3.40;93.90;;;;;;5050770;28;20564;-49
2022/01/05 05:02:59;;;;;;;5.00;2.20;;;3.40;91.50;;;;;;5044745;28;21037;-49
2022/01/05 05:05:25;;;;;;;6.60;2.50;;;3.40;93.30;;;;;;5051957;28;20548;-50
2022/01/05 05:07:52;;;;;;;10.93;2.57;;;3.40;99.40;;;;;;5053154;28;20457;-50
2022/01/05 05:10:18;;;;;;;10.00;2.20;;;3.40;99.90;;;;;;5050907;28;20529;-49
2022/01/05 05:12:46;;;;;;;6.03;2.40;;;3.50;99.90;;;;;;5053160;28;20549;-48
2022/01/05 05:15:13;;;;;;;4.07;1.83;;;3.50;99.90;;;;;;5051762;28;20552;-48
2022/01/05 05:17:39;;;;;;;4.50;2.07;;;3.50;99.90;;;;;;5048004;28;20492;-48
2022/01/05 05:20:07;;;;;;;6.50;2.30;;;3.40;99.90;;;;;;5046094;28;20478;-49
2022/01/05 05:22:35;;;;;;;10.20;2.20;;;3.40;99.90;;;;;;5045983;28;20561;-48
2022/01/05 05:25:01;;;;;;;4.30;2.23;;;3.40;99.90;;;;;;5050667;28;20457;-48
2022/01/05 05:27:28;;;;;;;4.00;1.97;;;3.50;99.90;;;;;;5053774;28;20496;-49
2022/01/05 05:29:56;;;;;;;5.90;2.00;;;3.40;99.90;;;;;;5047946;28;20553;-48
2022/01/05 05:32:22;;;;;;;6.30;2.33;;;3.40;99.90;;;;;;5052463;28;20453;-49
2022/01/05 05:34:49;;;;;;;3.57;2.10;;;3.40;99.90;;;;;;5051859;28;20549;-50
2022/01/05 05:37:16;;;;;;;8.47;2.80;;;3.40;99.90;;;;;;5049189;28;20612;-49
2022/01/05 05:39:43;;;;;;;5.60;2.40;;;3.40;99.90;;;;;;5048514;28;20481;-50
2022/01/05 05:42:10;;;;;;;7.33;3.17;;;3.40;99.90;;;;;;5045636;28;20875;-49
2022/01/05 05:44:36;;;;;;;6.53;2.10;;;3.40;99.90;;;;;;5048325;28;20545;-49
2022/01/05 05:47:05;;;;;;;8.13;2.20;;;3.40;99.90;;;;;;5050019;28;20566;-49
2022/01/05 05:49:32;;;;;;;6.83;2.87;;;3.30;99.90;;;;;;5046928;28;20484;-48
2022/01/05 05:51:58;;;;;;;6.73;2.60;;;3.30;99.90;;;;;;5050800;28;20553;-49
2022/01/05 05:54:25;;;;;;;6.00;2.37;;;3.30;99.90;;;;;;5053093;28;21034;-49
2022/01/05 05:56:52;;;;;;;5.17;2.13;;;3.20;99.90;;;;;;5047407;28;21014;-49
2022/01/05 05:59:18;;;;;;;10.83;2.50;;;3.30;99.90;;;;;;5046834;28;20572;-49
2022/01/05 06:01:45;;;;;;;11.73;2.97;;;3.20;99.90;;;;;;5040896;28;20541;-49
2022/01/05 06:04:13;;;;;;;5.97;2.07;;;3.20;99.90;;;;;;5042049;28;21038;-49
2022/01/05 06:06:39;;;;;;;6.77;2.30;;;3.20;84.50;;;;;;5036444;28;20547;-49
2022/01/05 06:09:06;;;;;;;11.03;2.60;;;3.20;97.90;;;;;;5041058;28;20915;-49
2022/01/05 06:11:32;;;;;;;9.50;2.50;;;3.20;99.10;;;;;;5044841;28;20557;-49
2022/01/05 06:13:59;;;;;;;15.80;5.27;;;3.10;96.30;;;;;;5045370;28;20528;-48
2022/01/05 06:16:25;;;;;;;6.77;2.20;;;3.10;98.30;;;;;;5045157;28;21274;-49
2022/01/05 06:18:52;;;;;;;7.30;2.13;;;3.10;99.90;;;;;;5042869;28;21018;-47
2022/01/05 06:21:20;;;;;;;8.80;2.33;;;3.10;99.90;;;;;;5043387;28;21014;-48
2022/01/05 06:23:46;;;;;;;5.37;2.23;;;3.20;99.90;;;;;;5048169;28;20493;-49
2022/01/05 06:26:13;;;;;;;7.10;2.87;;;3.10;99.90;;;;;;5048213;28;21038;-49
2022/01/05 06:28:39;;;;;;;8.57;2.43;;;3.20;99.90;;;;;;5037434;28;20568;-49
2022/01/05 06:31:06;;;;;;;6.30;2.97;;;3.10;99.90;;;;;;5058063;28;20551;-49
2022/01/05 06:33:33;;;;;;;6.50;2.07;;;3.00;99.90;;;;;;5049740;28;20557;-50
2022/01/05 06:35:59;;;;;;;5.33;2.40;;;3.00;99.90;;;;;;5047169;28;20532;-49
2022/01/05 06:38:27;;;;;;;4.40;2.17;;;3.00;99.90;;;;;;5046214;28;20477;-48
2022/01/05 06:40:54;;;;;;;10.97;3.07;;;2.90;99.90;;;;;;5039305;28;20505;-48
2022/01/05 06:43:20;;;;;;;5.50;1.93;;;2.90;99.90;;;;;;5048596;28;20552;-48
2022/01/05 06:45:47;;;;;;;8.97;2.90;;;2.90;99.90;;;;;;5047595;28;20918;-53
2022/01/05 06:48:13;;;;;;;13.93;2.33;;;2.80;99.90;;;;;;5051820;28;20533;-53
2022/01/05 06:50:40;;;;;;;10.23;2.00;;;2.80;99.90;;;;;;5048914;28;20552;-53
2022/01/05 06:53:06;;;;;;;7.90;2.40;;;2.80;99.90;;;;;;5052136;28;20541;-53
2022/01/05 06:55:35;;;;;;;6.87;2.30;;;2.80;99.90;;;;;;5050746;28;20561;-53
2022/01/05 06:58:01;;;;;;;7.17;2.20;;;2.80;99.90;;;;;;5050477;28;20519;-53
2022/01/05 07:00:31;;;;;;;12.37;2.30;;;2.70;99.90;;;;;;5050523;28;21037;-53
2022/01/05 07:02:57;;;;;;;3.60;2.00;;;2.80;99.90;;;;;;5051080;28;20462;-52
2022/01/05 07:05:24;;;;;;;10.13;2.90;;;2.80;99.90;;;;;;5047669;28;20464;-52
2022/01/05 07:07:51;;;;;;;3.97;1.60;;;2.80;99.90;;;;;;5049454;28;20541;-52
2022/01/05 07:10:18;;;;;;;13.90;2.20;;;2.70;99.90;;;;;;5043814;28;20604;-53
2022/01/05 07:12:46;;;;;;;7.70;2.20;;;2.70;99.90;;;;;;5042949;28;20458;-53
2022/01/05 07:15:12;;;;;;;5.67;2.27;;;2.70;99.90;;;;;;5040257;28;20560;-54
2022/01/05 07:17:39;;;;;;;6.67;2.60;;;2.60;99.90;;;;;;5041610;28;20469;-53
2022/01/05 07:20:07;;;;;;;7.90;2.47;;;2.60;99.90;;;;;;5046009;28;20561;-53
2022/01/05 07:22:35;;;;;;;9.10;3.23;;;2.60;99.90;;;;;;5045362;28;20516;-53
2022/01/05 07:25:01;;;;;;;9.47;2.50;;;2.60;99.90;;;;;;5048040;28;20916;-53
2022/01/05 07:27:28;;;;;;;13.33;3.00;;;2.60;99.90;;;;;;5044313;28;20489;-53
2022/01/05 07:29:56;;;;;;;12.43;2.47;;;2.60;99.90;;;;;;5049101;28;20561;-53
2022/01/05 07:32:22;;;;;;;13.03;2.87;;;2.70;99.90;;;;;;5048645;28;20553;-53
2022/01/05 07:34:49;;;;;;;6.57;2.30;;;2.70;99.90;;;;;;5047382;28;20465;-52
2022/01/05 07:37:16;;;;;;;6.00;1.63;;;2.70;99.90;;;;;;5047801;28;20501;-52
2022/01/05 07:39:42;;;;;;;7.40;2.37;;;2.70;99.90;;;;;;5041882;28;20486;-52
2022/01/05 07:42:27;;;;;;;5.33;2.20;;;2.80;99.90;;;;;;5050963;28;20450;-51
2022/01/05 07:44:58;;;;;;;10.23;2.70;;;2.70;99.90;;;;;;5050360;28;21459;-58
2022/01/05 07:47:25;;;;;;;8.63;2.10;;;2.70;99.90;;;;;;5043627;28;20543;-58
2022/01/05 07:49:51;;;;;;;12.07;2.40;;;2.70;99.90;;;;;;5043091;28;20554;-57
2022/01/05 07:52:18;;;;;;;11.50;2.70;;;2.70;99.90;;;;;;5041105;28;20461;-57
2022/01/05 07:54:44;;;;;;;9.50;2.37;;;2.70;99.90;;;;;;5037461;28;20546;-58
2022/01/05 07:57:11;;;;;;;17.37;2.93;;;2.70;99.90;;;;;;5047471;28;20496;-57
2022/01/05 07:59:38;;;;;;;7.73;2.23;;;2.70;99.90;;;;;;5047384;28;20936;-57
2022/01/05 08:02:06;;;;;;;6.17;2.63;;;2.80;99.90;;;;;;5047752;28;20556;-56
2022/01/05 08:04:32;;;;;;;11.20;3.23;;;2.70;99.90;;;;;;5047918;28;20509;-58
2022/01/05 08:06:59;;;;;;;7.03;2.63;;;2.80;99.90;;;;;;5049667;28;20544;-57
2022/01/05 08:09:28;;;;;;;6.13;2.17;;;2.80;99.90;;;;;;5047414;28;20585;-57
2022/01/05 08:11:54;;;;;;;5.60;2.57;;;2.80;99.90;;;;;;5046944;28;20557;-57
2022/01/05 08:14:21;;;;;;;6.93;2.60;;;2.80;99.90;;;;;;5044566;28;20552;-57
2022/01/05 08:16:47;;;;;;;8.97;2.70;;;2.80;99.90;;;;;;5048686;28;21034;-58
2022/01/05 08:19:15;;;;;;;8.47;2.40;;;2.80;99.90;;;;;;5042093;28;20924;-57
2022/01/05 08:21:42;;;;;;;5.07;2.07;;;2.80;99.90;;;;;;5041523;28;20544;-56
2022/01/05 08:24:08;;;;;;;8.57;2.13;;;2.80;99.90;;;;;;5041598;28;20557;-57
2022/01/05 08:26:35;;;;;;;8.87;2.83;;;2.80;99.90;;;;;;5047918;28;20542;-57
2022/01/05 08:29:01;;;;;;;12.83;3.70;;;2.90;99.90;;;;;;5042904;28;20562;-56
2022/01/05 08:31:28;;;;;;;11.27;2.60;;;2.90;99.90;;;;;;5047550;28;20568;-57
2022/01/05 08:33:56;;;;;;;10.60;2.60;;;2.90;99.90;;;;;;5046541;28;20549;-56
2022/01/05 08:36:25;;;;;;;10.83;2.93;;;2.90;99.90;;;;;;5046739;28;20898;-57
2022/01/05 08:38:51;;;;;;;7.30;2.30;;;3.00;99.90;;;;;;5048063;28;20485;-57
2022/01/05 08:41:18;;;;;;;7.10;2.40;;;3.10;99.90;;;;;;5044880;28;20589;-57
2022/01/05 08:43:45;;;;;;;8.00;3.17;;;3.20;99.90;;;;;;5047801;28;20536;-57
2022/01/05 08:46:12;;;;;;;6.50;2.10;;;3.30;34.70;;;;;;5038501;28;20461;-57
2022/01/05 08:48:40;;;;;;;11.70;2.83;;;3.50;67.80;;;;;;5044225;28;22054;-56
2022/01/05 08:51:07;;;;;;;6.80;2.37;;;3.50;66.90;;;;;;5045404;28;20636;-56
2022/01/05 08:53:35;;;;;;;7.27;2.80;;;3.50;58.80;;;;;;5040995;28;20545;-49
2022/01/05 08:56:02;;;;;;;11.37;2.73;;;3.50;65.50;;;;;;5044880;28;20533;-49
2022/01/05 08:58:28;;;;;;;11.37;2.30;;;3.60;70.40;;;;;;5047007;28;20543;-48
2022/01/05 09:00:55;;;;;;;13.87;2.70;;;3.60;73.90;;;;;;5047053;28;21061;-47
2022/01/05 09:03:22;;;;;;;13.10;2.80;;;3.70;96.80;;;;;;5045062;28;20556;-49
2022/01/05 09:05:49;;;;;;;5.70;2.40;;;3.80;86.30;;;;;;5043005;28;20458;-48
2022/01/05 09:08:15;;;;;;;14.10;2.60;;;3.80;99.30;;;;;;5044607;28;20548;-48
2022/01/05 09:10:44;;;;;;;9.57;2.90;;;3.80;99.90;;;;;;5045438;28;20946;-49
2022/01/05 09:13:12;;;;;;;13.33;2.50;;;3.80;99.90;;;;;;5041593;28;20548;-46
2022/01/05 09:15:40;;;;;;;4.50;2.53;;;3.80;99.90;;;;;;5047660;28;20461;-48
2022/01/05 09:18:07;;;;;;;10.90;2.53;;;3.80;99.90;;;;;;5049900;28;20454;-47
2022/01/05 09:20:34;;;;;;;4.47;2.47;;;3.80;99.90;;;;;;5047251;28;20481;-47
2022/01/05 09:23:02;;;;;;;9.00;3.63;;;3.90;99.90;;;;;;5047574;28;20548;-47
2022/01/05 09:25:28;;;;;;;11.57;2.47;;;3.80;99.90;;;;;;5047309;28;20559;-46
2022/01/05 09:27:56;;;;;;;10.83;3.27;;;3.80;99.90;;;;;;5047281;28;20541;-47
2022/01/05 09:30:23;;;;;;;11.97;3.57;;;3.90;99.90;;;;;;5044903;28;21645;-48
2022/01/05 09:32:50;;;;;;;7.03;2.50;;;3.90;99.90;;;;;;5047058;28;20458;-49
2022/01/05 09:35:20;;;;;;;5.23;2.17;;;4.00;99.90;;;;;;5045649;28;20493;-48
2022/01/05 09:37:54;;;;;;;12.63;2.70;;;4.00;99.90;;;;;;5051996;28;20816;-48
2022/01/05 09:43:08;;;;;;;14.83;3.63;;;4.10;99.90;;;;;;5049969;28;21096;-47
2022/01/05 09:45:36;;;;;;;9.43;2.83;;;4.10;99.90;;;;;;5050672;28;20458;-46
2022/01/05 09:48:51;;;;;;;10.57;2.93;;;4.20;99.90;;;;;;5044706;28;20493;-48
2022/01/05 09:51:20;;;;;;;3.93;2.60;;;4.20;99.90;;;;;;5031224;28;20552;-48
2022/01/05 09:53:47;;;;;;;9.20;2.90;;;4.10;99.90;;;;;;5052783;28;21182;-48
2022/01/05 09:56:14;;;;;;;8.83;3.30;;;4.10;99.90;;;;;;5048980;28;21026;-47
2022/01/05 09:58:43;;;;;;;18.87;2.63;;;4.10;99.90;;;;;;5048576;28;20576;-47
2022/01/05 10:01:09;;;;;;;9.80;2.90;;;4.10;99.90;;;;;;5043686;28;20478;-47
2022/01/05 10:03:36;;;;;;;6.63;2.60;;;4.10;99.90;;;;;;5045055;28;20545;-48
2022/01/05 10:06:03;;;;;;;10.20;2.73;;;4.10;99.90;;;;;;5049313;28;20987;-47
2022/01/05 10:08:31;;;;;;;7.57;2.73;;;4.00;99.90;;;;;;5051014;28;20557;-47
2022/01/05 10:10:58;;;;;;;11.40;2.67;;;4.00;99.90;;;;;;5050614;28;20839;-52
2022/01/05 10:13:24;;;;;;;9.90;2.53;;;4.00;99.90;;;;;;5050973;28;20518;-52
2022/01/05 10:15:53;;;;;;;12.43;3.27;;;4.10;99.90;;;;;;5048543;28;20468;-52
2022/01/05 10:18:22;;;;;;;10.80;2.60;;;4.10;99.90;;;;;;5048087;28;20545;-51
2022/01/05 10:20:56;;;;;;;11.03;3.30;;;4.10;99.90;;;;;;5048839;28;20888;-52
2022/01/05 10:23:35;;;;;;;7.30;2.90;;;4.10;99.90;;;;;;5047771;28;20462;-52
2022/01/05 10:26:21;;;;;;;14.60;2.73;;;4.10;99.90;;;;;;5051446;28;20450;-52
2022/01/05 10:28:48;;;;;;;6.60;3.00;;;4.10;99.90;;;;;;5045822;28;20507;-52
2022/01/05 10:31:17;;;;;;;11.57;2.80;;;4.10;99.90;;;;;;5047042;28;20482;-52
2022/01/05 10:33:44;;;;;;;11.20;2.67;;;4.10;99.90;;;;;;5052118;28;20457;-51
2022/01/05 10:36:10;;;;;;;13.80;4.43;;;4.10;99.90;;;;;;5052834;28;20512;-52
2022/01/05 10:38:37;;;;;;;7.50;2.40;;;4.10;99.90;;;;;;5050799;28;20477;-53
2022/01/05 10:41:15;;;;;;;7.67;3.13;;;4.20;99.90;;;;;;5046158;28;20537;-52
2022/01/05 10:44:14;;;;;;;6.50;3.37;;;4.30;99.90;;;;;;5038246;28;20541;-52
2022/01/05 10:46:45;;;;;;;14.10;3.10;;;4.30;99.90;;;;;;5041580;28;20527;-52
2022/01/05 10:49:27;;;;;;;8.27;2.90;;;4.30;99.90;;;;;;5044040;28;20557;-52
2022/01/05 10:51:53;;;;;;;5.47;2.70;;;4.30;99.90;;;;;;5042483;28;20486;-51
2022/01/05 10:54:22;;;;;;;9.37;2.90;;;4.40;99.90;;;;;;5046688;28;20539;-52
2022/01/05 10:56:49;;;;;;;11.50;3.03;;;4.50;99.90;;;;;;5042956;28;20528;-52
2022/01/05 10:59:25;;;;;;;7.70;2.47;;;4.50;99.90;;;;;;5046348;28;20491;-52
2022/01/05 11:01:53;;;;;;;13.80;2.70;;;4.40;99.90;;;;;;5046068;28;20466;-53
2022/01/05 11:04:22;;;;;;;9.63;2.40;;;4.40;99.90;;;;;;5047112;28;20511;-52
2022/01/05 11:06:56;;;;;;;8.20;2.93;;;4.40;99.90;;;;;;5043617;28;20545;-52
2022/01/05 11:09:24;;;;;;;19.07;3.27;;;4.40;99.90;;;;;;5044672;28;20516;-47
2022/01/05 11:11:51;;;;;;;17.00;4.40;;;4.40;99.90;;;;;;5048297;28;20900;-48
2022/01/05 11:14:19;;;;;;;10.70;2.83;;;4.50;99.90;;;;;;5050868;28;20449;-48
2022/01/05 11:16:47;;;;;;;19.90;3.23;;;4.60;99.90;;;;;;5047334;28;20549;-47
2022/01/05 11:19:18;;;;;;;10.70;3.23;;;4.60;99.90;;;;;;5043883;28;20573;-47
2022/01/05 11:22:06;;;;;;;10.20;2.60;;;4.50;99.90;;;;;;5047456;28;21059;-47
2022/01/05 11:24:35;;;;;;;12.37;2.63;;;4.50;99.90;;;;;;5049385;28;20462;-47
2022/01/05 11:27:03;;;;;;;7.57;3.37;;;4.40;99.90;;;;;;5050053;28;20458;-47
2022/01/05 11:29:29;;;;;;;14.03;3.47;;;4.40;99.90;;;;;;5050305;28;20562;-49
2022/01/05 11:31:57;;;;;;;12.37;3.97;;;4.40;99.90;;;;;;5050924;28;20924;-48
2022/01/05 11:34:28;;;;;;;13.87;3.60;;;4.40;99.90;;;;;;5050393;28;20453;-48
2022/01/05 11:36:55;;;;;;;5.10;2.20;;;4.40;99.90;;;;;;5052009;28;20442;-48
2022/01/05 11:39:22;;;;;;;9.33;2.93;;;4.30;99.90;;;;;;5050222;28;20580;-47
2022/01/05 11:41:51;;;;;;;8.70;3.03;;;4.30;99.90;;;;;;5039744;28;20465;-48
2022/01/05 11:44:18;;;;;;;5.80;2.80;;;4.30;99.90;;;;;;5045429;28;20533;-49
2022/01/05 11:46:46;;;;;;;14.37;3.50;;;4.30;99.90;;;;;;5050247;28;20546;-48
2022/01/05 11:49:15;;;;;;;10.10;3.40;;;4.30;99.90;;;;;;5047900;28;20896;-48
2022/01/05 11:51:51;;;;;;;14.27;3.27;;;4.30;99.90;;;;;;5046715;28;20658;-48
2022/01/05 11:54:20;;;;;;;10.13;2.97;;;4.30;99.90;;;;;;5051191;28;20453;-48
2022/01/05 11:56:51;;;;;;;18.33;3.97;;;4.30;99.90;;;;;;5049923;28;20548;-47
2022/01/05 11:59:24;;;;;;;17.07;2.73;;;4.30;99.90;;;;;;5050690;28;20474;-48
2022/01/05 12:01:59;;;;;;;12.03;3.50;;;4.40;99.90;;;;;;5040525;28;20453;-48
2022/01/05 12:04:26;;;;;;;10.67;3.23;;;4.40;99.90;;;;;;5049509;28;20456;-48
2022/01/05 12:07:08;;;;;;;10.53;3.33;;;4.40;99.90;;;;;;5051418;28;20533;-48
2022/01/05 12:09:37;;;;;;;11.50;3.70;;;4.40;99.90;;;;;;5049290;28;21028;-48
2022/01/05 12:12:25;;;;;;;11.37;3.63;;;4.40;99.90;;;;;;5042413;28;20513;-48
2022/01/05 12:14:51;;;;;;;9.77;3.10;;;4.40;99.90;;;;;;5046649;28;20453;-48
2022/01/05 12:17:20;;;;;;;8.50;3.20;;;4.40;99.90;;;;;;5047991;28;20497;-48
2022/01/05 12:20:10;;;;;;;7.73;3.73;;;4.40;99.90;;;;;;5047548;28;20960;-46
2022/01/05 12:22:38;;;;;;;9.03;3.20;;;4.30;99.90;;;;;;5049698;28;20441;-47
2022/01/05 12:25:17;;;;;;;10.33;3.53;;;4.30;99.90;;;;;;5047013;28;21953;-48
2022/01/05 12:27:52;;;;;;;10.10;2.90;;;4.30;99.90;;;;;;5045259;28;20454;-47
2022/01/05 12:30:36;;;;;;;8.10;2.63;;;4.30;99.90;;;;;;5047187;28;20478;-48
2022/01/05 12:33:06;;;;;;;8.63;3.03;;;4.30;99.90;;;;;;5042971;28;20831;-48
2022/01/05 12:35:46;;;;;;;13.87;3.67;;;4.40;99.90;;;;;;5049101;28;20477;-47
2022/01/05 12:38:31;;;;;;;11.13;3.13;;;4.40;99.90;;;;;;5045832;28;20829;-47
2022/01/05 12:40:58;;;;;;;11.43;3.10;;;4.40;99.90;;;;;;5040199;28;20490;-48
2022/01/05 12:43:31;;;;;;;10.80;3.60;;;4.40;99.90;;;;;;5045403;28;20549;-48
2022/01/05 12:46:00;;;;;;;11.17;3.43;;;4.40;99.90;;;;;;5046786;28;20512;-48
2022/01/05 12:49:02;;;;;;;12.60;3.63;;;4.40;99.90;;;;;;5045121;28;20512;-47
2022/01/05 12:51:41;;;;;;;6.63;3.40;;;4.40;99.90;;;;;;5048833;28;20450;-48
2022/01/05 12:54:13;;;;;;;11.03;3.30;;;4.40;99.90;;;;;;5038292;28;21001;-48
2022/01/05 12:56:42;;;;;;;15.80;4.20;;;4.40;99.90;;;;;;5041239;28;20528;-47
2022/01/05 12:59:11;;;;;;;19.10;4.13;;;4.50;99.90;;;;;;5041526;28;20576;-47
2022/01/05 13:01:39;;;;;;;10.87;3.87;;;4.50;99.90;;;;;;5044044;28;20611;-48